Standish, MI (48658)

10:49 PM EDT on April 21, 2015 (GMT -0400)
Pinconning farm country, (Pintucky Hawg Farm) | | Change Station
CLOSE
Current Station
Personal Weather Station
Location: Pinconning, MI
Elevation: 623 ft
Nearby Weather Stations

Elev 623 ft 43.82 °N, 84.03 °W | Updated 14 minutes ago

Overcast
Overcast
38.1 °F
Feels Like 38 °F
N
1.1
Wind Variable Wind from East

Today
High -- | Low -- °F
--% Chance of Precip.
Yesterday
High -- | Low -- °F
Precip. -- in
6:43 AM 8:26 PM
Waxing Crescent, 14% visible
Pressure 29.58 in
Visibility 10.0 miles
Clouds Mostly Cloudy 2500 ft
Mostly Cloudy 3700 ft
Overcast 5500 ft
Windchill 38 °F
Dew Point 35 °F
Humidity 88%
Rainfall 0.14 in
Snow Depth Not available.
UV 0 out of 12
Pollen 7.90 out of 12
Air Quality Not available.
Flu Activity Regional
METAR KIKW 220214Z AUTO 23007KT 10SM BKN025 BKN037 OVC055 04/00 A2958 RMK AO2 T00401002

More Conditions Fewer Conditions

Pressure 29.58 in
Visibility 10.0 miles
Clouds Mostly Cloudy 2500 ft
Mostly Cloudy 3700 ft
Overcast 5500 ft
Windchill 38 °F
Dew Point 35 °F
Humidity 88%
Rainfall 0.14 in
Snow Depth Not available.
UV 0 out of 12
Pollen 7.90 out of 12
Air Quality Not available.
Flu Activity Regional
METAR KIKW 220214Z AUTO 23007KT 10SM BKN025 BKN037 OVC055 04/00 A2958 RMK AO2 T00401002

More Conditions Fewer Conditions

Nowcast | as of 10:00 PM EDT on April 21, 2015

At 11 PM...mostly cloudy. Temperature 39. West winds 9 mph. At 1 am...mostly cloudy. Temperature 37. Southwest winds 9 mph. At 3 am...mostly cloudy. Chance of rain and snow. Temperature 36. West winds 8 mph. At 5 am...mostly cloudy. Chance of rain and snow. Temperature 35. West winds 8 mph.

×

10-Day Weather Forecast

Almanac

Astronomy

Apr. 21, 2015 Rise Set
Actual Time
Civil Twilight
Nautical Twilight
Astronomical Twilight
Moon
Length of Visible Light
Length of Day
Tomorrow will be .
, % of the Moon is Illuminated

Today's Extremes

State Highs State Lows

Community

WunderPhotos

Upload Photos

1,815,642 photos uploaded!

WunderBlogs® & News

Nearby

Air Quality

  Air Quality AQ Index Pollutant
Not available.

Snow Depth

Station Depth Elevation

Earthquake Activity

City Distance Mag. Time & Date
Minimum magnitude displayed is 2.5.

Coastal Water Temperatures

Place Temperature

Stations

Nearby Weather Stations

Station Location Temp. Windchill Dew Point Humidity Wind Precip. Elev Updated Type